Home > Products > Valid Products > MTR

000
SAUS41 KCAR 250900
MTRGNR
METAR KGNR 250856Z AUTO 33010KT 06/01 A2963 RMK AO1 SLP043 T00560006
58001





000
SAUS41 KCAR 250816
MTR40B
METAR K40B 250816Z AUTO 00000KT 03/01 A2966 RMK AO1 SLP058
     T00330007 57005





000
SAUS41 KCAR 250800
MTRGNR
METAR KGNR 250756Z AUTO 31006KT 05/01 A2964 RMK AO1 SLP046 T00500006





000
SAUS41 KCAR 250716
MTR40B
METAR K40B 250716Z AUTO 00000KT 03/02 A2967 RMK AO1 SLP061
     T00310020 56007





000
SAUS41 KCAR 250700
MTRGNR
METAR KGNR 250656Z AUTO 32010G15KT 270V340 05/M01 A2963 RMK AO1
SLP045 T00501006





000
SAUS41 KCAR 250616
MTR40B
METAR K40B 250616Z AUTO 00000KT 03/01 A2967 RMK AO1 SLP061
     T00310012 10045 20029 57011





000
SAUS41 KCAR 250600
MTRGNR
METAR KGNR 250556Z AUTO 32013G21KT 06/M01 A2963 RMK AO1 SLP043
T00561011 10056 20050 56006





000
SAUS41 KCAR 250516
MTR40B
METAR K40B 250516Z AUTO 00000KT 03/02 A2968 RMK AO1 SLP063
     T00310023 400600031 57013





000
SAUS41 KCAR 250500
MTRGNR
METAR KGNR 250456Z AUTO 32010G18KT 05/00 A2963 RMK AO1 SLP045
T00500000 400560044





000
SAUS41 KCAR 250416
MTR40B
METAR K40B 250416Z AUTO 00000KT 03/03 A2970 RMK AO1 SLP068
     T00330028 57011





000
SAUS41 KCAR 250400
MTRGNR
METAR KGNR 250356Z AUTO 33011G16KT 290V360 06/01 A2964 RMK AO1
SLP047 T00560006





000
SAUS41 KCAR 250400
MTRGNR
METAR KGNR 250356Z AUTO 33011G16KT 290V360 06/01 A2964 RMK AO1
SLP047 T00560006





000
SAUS41 KCAR 250316
MTR40B
METAR K40B 250316Z AUTO 00000KT 04/03 A2971 RMK AO1 SLP072
     T00370026 58006





000
SAUS41 KCAR 250300
MTRGNR
METAR KGNR 250256Z AUTO 33010G18KT 06/03 A2965 RMK AO1 SLP050
T00560033 58005





000
SAUS41 KCAR 250216
MTR40B
METAR K40B 250216Z AUTO VRB02KT 04/03 A2972 RMK AO1 SLP076
     T00380029 58002





000
SAUS41 KCAR 250116
MTR40B
METAR K40B 250116Z AUTO VRB02KT 04/03 A2973 RMK AO1 SLP079
     T00380031 52002





000
SAUS41 KCAR 250016
MTR40B
METAR K40B 250016Z AUTO 00000KT 04/03 A2973 RMK AO1 SLP078
     T00440032 10057 20041 54000 60006





000
SAUS41 KCAR 242316
MTR40B
METAR K40B 242316Z AUTO VRB02KT 05/04 A2972 RMK AO1 SLP078
     T00470037 55006





000
SAUS41 KCAR 242216
MTR40B
METAR K40B 242216Z AUTO 00000KT 05/05 A2973 RMK AO1 SLP078
     T00520049 56009 P0000





000
SAUS41 KCAR 242116
MTR40B
METAR K40B 242116Z AUTO 00000KT 05/04 A2973 RMK AO1 SLP079
     T00530045 57009 P0001 60005





000
SAUS41 KCAR 242016
MTR40B
METAR K40B 242016Z AUTO VRB02KT 05/05 A2974 RMK AO1 SLP084
     T00530046 57008 P0002





000
SAUS41 KCAR 241957
MTRGNR
METAR KGNR 241956Z AUTO 35007G15KT 06/04 A2964 RMK AO1 SLP049
T00560044





000
SAUS41 KCAR 241957
MTRGNR
METAR KGNR 241956Z AUTO 35007G15KT 06/04 A2964 RMK AO1 SLP049
T00560044





000
SAUS41 KCAR 241916
MTR40B
METAR K40B 241916Z AUTO VRB03KT 05/05 A2975 RMK AO1 SLP088
     T00530045 56012 P0002





000
SAUS41 KCAR 241857
MTRGNR
METAR KGNR 241856Z AUTO 35009KT 06/04 A2964 RMK AO1 SLP050 T00560044





000
SAUS41 KCAR 241816
MTR40B
METAR K40B 241816Z AUTO VRB03KT 06/05 A2976 RMK AO1 SLP089
     T00560048 10060 20038 57013 P0002 60010





000
SAUS41 KCAR 241757
MTRGNR
METAR KGNR 241756Z AUTO 35010KT 06/04 A2966 RMK AO1 SLP055 60012
T00560044 10056 20044 56013





000
SAUS41 KCAR 241716
MTR40B
METAR K40B 241716Z AUTO VRB03KT 05/04 A2977 RMK AO1 SLP093
     T00550045 58012 P0001





000
SAUS41 KCAR 241657
MTRGNR
METAR KGNR 241656Z AUTO 35009G16KT 06/04 A2967 RMK AO1 SLP059
T00560044





000
SAUS41 KCAR 241616
MTR40B
METAR K40B 241616Z AUTO VRB03KT 06/05 A2979 RMK AO1 SLP100
     T00590049 57010 P0000





000
SAUS41 KCAR 241557
MTRGNR
METAR KGNR 241556Z AUTO 36014G19KT 05/04 A2968 RMK AO1 SLP062
T00500039





000
SAUS41 KCAR 241516
MTR40B
METAR K40B 241516Z AUTO VRB03KT 05/05 A2979 RMK AO1 SLP103
     T00550045 57013 P0001 60006





000
SAUS41 KCAR 241457
MTRGNR
METAR KGNR 241456Z AUTO 36008G18KT 05/04 A2970 RMK AO1 SLP068 60012
T00500039 58001





000
SAUS41 KCAR 241416
MTR40B
METAR K40B 241416Z AUTO 00000KT 04/03 A2980 RMK AO1 SLP105
     T00440033 58008 P0004





000
SAUS41 KCAR 241416
MTR40B
METAR K40B 241416Z AUTO 00000KT 04/03 A2980 RMK AO1 SLP105
     T00440033 58008 P0004





000
SAUS41 KCAR 241357
MTRGNR
METAR KGNR 241356Z AUTO 36012G17KT 04/03 A2970 RMK AO1 SLP069 P0003
T00440033





000
SAUS41 KCAR 241316
MTR40B
METAR K40B 241316Z AUTO VRB04KT 04/03 A2982 RMK AO1 SLP112
     T00390030 58003 P0001





000
SAUS41 KCAR 241257
MTRGNR
METAR KGNR 241256Z AUTO 35012G19KT 04/03 A2970 RMK AO1 SLP068 P0009
T00440033





000
SAUS41 KCAR 241216
MTR40B
METAR K40B 241216Z AUTO 00000KT 04/03 A2983 RMK AO1 SLP116
     T00390030 10040 20037 54001 P0001 60049 70111





000
SAUS41 KCAR 241158
MTRGNR
METAR KGNR 241156Z AUTO 36012KT 04/04 A2970 RMK AO1 SLP068 P0004
60022 70173 T00440039 10044 20044 58003





000
SAUS41 KCAR 241116
MTR40B
METAR K40B 241116Z AUTO VRB02KT 04/03 A2983 RMK AO1 SLP114
     T00390033 57003 P0002





000
SAUS41 KCAR 241057
MTRGNR
METAR KGNR 241056Z AUTO 35010G18KT 04/04 A2970 RMK AO1 SLP070
T00440039





000
SAUS41 KCAR 241057
MTRGNR
METAR KGNR 241056Z AUTO 35010G18KT 04/04 A2970 RMK AO1 SLP070
T00440039





000
SAUS41 KCAR 241016
MTR40B
METAR K40B 241016Z AUTO 00000KT 04/04 A2983 RMK AO1 SLP114
     T00390036 57007 P0008





000
SAUS41 KCAR 240957
MTRGNR
METAR KGNR 240956Z AUTO 36011G19KT 04/03 A2971 RMK AO1 SLP072 P0002
T00440033





000
SAUS41 KCAR 240957
MTRGNR
METAR KGNR 240956Z AUTO 36011G19KT 04/03 A2971 RMK AO1 SLP072 P0002
T00440033





000
SAUS41 KCAR 240916
MTR40B
METAR K40B 240916Z AUTO VRB02KT 04/03 A2984 RMK AO1 SLP116
     T00380034 57009 P0020 60037





000
SAUS41 KCAR 240857
MTRGNR
METAR KGNR 240856Z AUTO 35009KT 04/04 A2971 RMK AO1 SLP072 P0002
60016 T00440039 56013





000
SAUS41 KCAR 240816
MTR40B
METAR K40B 240816Z AUTO VRB03KT 04/03 A2984 RMK AO1 SLP116
     T00380034 57014 P0014





000
SAUS41 KCAR 240816
MTR40B
METAR K40B 240816Z AUTO VRB03KT 04/03 A2984 RMK AO1 SLP116
     T00380034 57014 P0014





000
SAUS41 KCAR 240757
MTRGNR
METAR KGNR 240756Z AUTO 35009KT 04/03 A2973 RMK AO1 SLP077 P0009
T00440033





000
SAUS41 KCAR 240716
MTR40B
METAR K40B 240716Z AUTO 00000KT 04/03 A2985 RMK AO1 SLP120
     T00380033 57016 P0003





000
SAUS41 KCAR 240657
MTRGNR
METAR KGNR 240656Z AUTO 35009KT 04/04 A2973 RMK AO1 SLP079 P0005
T00440039





000
SAUS41 KCAR 240616
MTR40B
METAR K40B 240616Z AUTO VRB04G11KT 04/03 A2987 RMK AO1 SLP125
     T00380032 10057 20037 57016 P0017 60052





000
SAUS41 KCAR 240558
MTRGNR
METAR KGNR 240556Z AUTO 35011G19KT 04/04 A2975 RMK AO1 SLP086 P0007
60071 T00440039 10072 20044 56019





000
SAUS41 KCAR 240516
MTR40B
METAR K40B 240516Z AUTO 02006G13KT 350V060 04/03 A2988 RMK AO1
     SLP129 T00390033 400800036 57020 P0019





000
SAUS41 KCAR 240457
MTRGNR
METAR KGNR 240456Z AUTO 35013G18KT 04/04 A2977 RMK AO1 SLP091 P0004
T00440039 400780044





000
SAUS41 KCAR 240457
MTRGNR
METAR KGNR 240456Z AUTO 35013G18KT 04/04 A2977 RMK AO1 SLP091 P0004
T00440039 400780044





000
SAUS41 KCAR 240416
MTR40B
METAR K40B 240416Z AUTO VRB04KT 04/03 A2990 RMK AO1 SLP136
     T00410034 58016 P0006





000
SAUS41 KCAR 240357
MTRGNR
METAR KGNR 240356Z AUTO 35009KT 05/04 A2979 RMK AO1 SLP099 P0023
T00500039





000
SAUS41 KCAR 240357
MTRGNR
METAR KGNR 240356Z AUTO 35009KT 05/04 A2979 RMK AO1 SLP099 P0023
T00500039





000
SAUS41 KCAR 240316
MTR40B
METAR K40B 240316Z AUTO 00000KT 04/03 A2992 RMK AO1 SLP141
     T00450034 58016 P0007 60010





000
SAUS41 KCAR 240316
MTR40B
METAR K40B 240316Z AUTO 00000KT 04/03 A2992 RMK AO1 SLP141
     T00450034 58016 P0007 60010





000
SAUS41 KCAR 240257
MTRGNR
METAR KGNR 240256Z AUTO 35008KT 06/04 A2981 RMK AO1 SLP105 P0022
60037 T00560044 56014





000
SAUS41 KCAR 240257
MTRGNR
METAR KGNR 240256Z AUTO 35008KT 06/04 A2981 RMK AO1 SLP105 P0022
60037 T00560044 56014





000
SAUS41 KCAR 240216
MTR40B
METAR K40B 240216Z AUTO 00000KT 04/04 A2994 RMK AO1 SLP149
     T00440037 57010 P0002





000
SAUS41 KCAR 240216
MTR40B
METAR K40B 240216Z AUTO 00000KT 04/04 A2994 RMK AO1 SLP149
     T00440037 57010 P0002





000
SAUS41 KCAR 240157
MTRGNR
METAR KGNR 240156Z AUTO 36006KT 07/06 A2982 RMK AO1 SLP109 P0013
T00670056





000
SAUS41 KCAR 240157
MTRGNR
METAR KGNR 240156Z AUTO 36006KT 07/06 A2982 RMK AO1 SLP109 P0013
T00670056





000
SAUS41 KCAR 240116
MTR40B
METAR K40B 240116Z AUTO VRB04KT 05/04 A2995 RMK AO1 SLP153
     T00540036 56014 P0000





000
SAUS41 KCAR 240057
MTRGNR
METAR KGNR 240056Z AUTO 36007KT 07/06 A2984 RMK AO1 SLP114 P0002
T00670056





000
SAUS41 KCAR 240016
MTR40B
METAR K40B 240016Z AUTO VRB03KT 06/04 A2996 RMK AO1 SLP158
     T00550043 10080 20054 57013 P0004 60005





000
SAUS41 KCAR 232357
MTRGNR
METAR KGNR 232356Z AUTO VRB05KT 07/06 A2985 RMK AO1 SLP119 P0010
60052 T00720056 10072 20067 56006





000
SAUS41 KCAR 232316
MTR40B
METAR K40B 232316Z AUTO VRB04KT 06/04 A2997 RMK AO1 SLP160
     T00550042 58012 P0000





000
SAUS41 KCAR 232257
MTRGNR
METAR KGNR 232256Z AUTO 01008KT 07/06 A2985 RMK AO1 SLP119 P0013
T00670056





000
SAUS41 KCAR 232216
MTR40B
METAR K40B 232216Z AUTO VRB03KT 06/04 A3000 RMK AO1 SLP169
     T00580045 57007 P0001





000
SAUS41 KCAR 232157
MTRGNR
METAR KGNR 232156Z AUTO VRB06KT 07/06 A2986 RMK AO1 SLP123 P0009
T00720056





000
SAUS41 KCAR 232116
MTR40B
METAR K40B 232116Z AUTO VRB03KT 07/03 A3001 RMK AO1 SLP173
     T00690034 57010 60000





000
SAUS41 KCAR 232057
MTRGNR
METAR KGNR 232056Z AUTO 02008G15KT 350V050 07/06 A2987 RMK AO1
SLP126 P0012 60020 T00720056 56010





000
SAUS41 KCAR 232016
MTR40B
METAR K40B 232016Z AUTO VRB04G14KT 08/03 A3001 RMK AO1 SLP174
     T00770031 56018





000
SAUS41 KCAR 231957
MTRGNR
METAR KGNR 231956Z AUTO 03014G21KT 07/05 A2988 RMK AO1 SLP127
T00720050





000
SAUS41 KCAR 231957
MTRGNR
METAR KGNR 231956Z AUTO 03014G21KT 07/05 A2988 RMK AO1 SLP127
T00720050





000
SAUS41 KCAR 231916
MTR40B
METAR K40B 231916Z AUTO VRB05G12KT 08/04 A3002 RMK AO1 SLP178
     T00770040 57023 P0000





000
SAUS41 KCAR 231916
MTR40B
METAR K40B 231916Z AUTO VRB05G12KT 08/04 A3002 RMK AO1 SLP178
     T00770040 57023 P0000





000
SAUS41 KCAR 231857
MTRGNR
METAR KGNR 231856Z AUTO 04013G23KT 010V080 07/05 A2989 RMK AO1
SLP131 P0008 T00720050





000
SAUS41 KCAR 231857
MTRGNR
METAR KGNR 231856Z AUTO 04013G23KT 010V080 07/05 A2989 RMK AO1
SLP131 P0008 T00720050





000
SAUS41 KCAR 231816
MTR40B
METAR K40B 231816Z AUTO VRB05G14KT 07/05 A3004 RMK AO1 SLP184
     T00710053 10074 20040 58027 P0000 60005





000
SAUS41 KCAR 231816
MTR40B
METAR K40B 231816Z AUTO VRB05G14KT 07/05 A3004 RMK AO1 SLP184
     T00710053 10074 20040 58027 P0000 60005





000
SAUS41 KCAR 231757
MTRGNR
METAR KGNR 231756Z AUTO 04012G23KT 07/06 A2990 RMK AO1 SLP137 P0003
60028 T00720056 10078 20061 56020





000
SAUS41 KCAR 231757
MTRGNR
METAR KGNR 231756Z AUTO 04012G23KT 07/06 A2990 RMK AO1 SLP137 P0003
60028 T00720056 10078 20061 56020





000
SAUS41 KCAR 231716
MTR40B
METAR K40B 231716Z AUTO 03006KT 360V070 07/04 A3007 RMK AO1 SLP194
     T00730038 58022





000
SAUS41 KCAR 231716
MTR40B
METAR K40B 231716Z AUTO 03006KT 360V070 07/04 A3007 RMK AO1 SLP194
     T00730038 58022





000
SAUS41 KCAR 231657
MTRGNR
METAR KGNR 231656Z AUTO 03014G20KT 07/06 A2992 RMK AO1 SLP143 P0002
T00720056





000
SAUS41 KCAR 231657
MTRGNR
METAR KGNR 231656Z AUTO 03014G20KT 07/06 A2992 RMK AO1 SLP143 P0002
T00720056





000
SAUS41 KCAR 231616
MTR40B
METAR K40B 231616Z AUTO 04008G14KT 350V060 07/04 A3010 RMK AO1
     SLP205 T00700043 58015





000
SAUS41 KCAR 231616
MTR40B
METAR K40B 231616Z AUTO 04008G14KT 350V060 07/04 A3010 RMK AO1
     SLP205 T00700043 58015





000
SAUS41 KCAR 231557
MTRGNR
METAR KGNR 231556Z AUTO 05009G18KT 07/06 A2995 RMK AO1 SLP152 P0003
T00720056





000
SAUS41 KCAR 231516
MTR40B
METAR K40B 231516Z AUTO VRB04G11KT 06/04 A3012 RMK AO1 SLP213
     T00610044 57011 60005





000
SAUS41 KCAR 231457
MTRGNR
METAR KGNR 231456Z AUTO 04012G23KT 07/05 A2997 RMK AO1 PK WND
04027/1412 SLP158 P0006 60020 T00670050 58012





000
SAUS41 KCAR 231457
MTRGNR
METAR KGNR 231456Z AUTO 04012G23KT 07/05 A2997 RMK AO1 PK WND
04027/1412 SLP158 P0006 60020 T00670050 58012





000
SAUS41 KCAR 231416
MTR40B
METAR K40B 231416Z AUTO VRB05KT 05/04 A3013 RMK AO1 SLP217
     T00510043 58007 P0001





000
SAUS41 KCAR 231357
MTRGNR
METAR KGNR 231356Z AUTO 03013G21KT 07/05 A2998 RMK AO1 SLP163 P0007
T00670050





000
SAUS41 KCAR 231316
MTR40B
METAR K40B 231316Z AUTO VRB03KT 04/04 A3014 RMK AO1 SLP221
     T00430037 58005 P0004





000
SAUS41 KCAR 231257
MTRGNR
METAR KGNR 231256Z AUTO 03011G21KT 06/05 A3000 RMK AO1 SLP168 P0007
T00610050





000
SAUS41 KCAR 231216
MTR40B
METAR K40B 231216Z AUTO VRB04KT 04/03 A3016 RMK AO1 SLP225
     T00400033 10052 20036 57004 60002 70003





000
SAUS41 KCAR 231157
MTRGNR
METAR KGNR 231156Z AUTO 02009G20KT 06/04 A3000 RMK AO1 SLP170 P0002
60006 70012 T00610044 10072 20061 58009





000
SAUS41 KCAR 231116
MTR40B
METAR K40B 231116Z AUTO VRB03KT 04/03 A3015 RMK AO1 SLP224
     T00380032 56012 P0001





000
SAUS41 KCAR 231057
MTRGNR
METAR KGNR 231056Z AUTO 04012G18KT 06/04 A3001 RMK AO1 SLP175 P0001
T00610044





000
SAUS41 KCAR 231016
MTR40B
METAR K40B 231016Z AUTO VRB04KT 04/03 A3016 RMK AO1 SLP226
     T00360030 57014 P0001





000
SAUS41 KCAR 230957
MTRGNR
METAR KGNR 230956Z AUTO 03012G17KT 06/04 A3002 RMK AO1 SLP177
T00610039





000
SAUS41 KCAR 230957
MTRGNR
METAR KGNR 230956Z AUTO 03012G17KT 06/04 A3002 RMK AO1 SLP177
T00610039





000
SAUS41 KCAR 230916
MTR40B
METAR K40B 230916Z AUTO VRB03KT 04/02 A3017 RMK AO1 SLP229
     T00380025 57017





000
SAUS41 KCAR 230857
MTRGNR
METAR KGNR 230856Z AUTO 03013G19KT 06/04 A3003 RMK AO1 SLP179 P0001
60003 T00610039 56018





000
SAUS41 KCAR 230816
MTR40B
METAR K40B 230816Z AUTO VRB05G12KT 05/01 A3019 RMK AO1 SLP235
     T00470010 58015





000
SAUS41 KCAR 230816
MTR40B
METAR K40B 230816Z AUTO VRB05G12KT 05/01 A3019 RMK AO1 SLP235
     T00470010 58015





000
SAUS41 KCAR 230757
MTRGNR
METAR KGNR 230756Z AUTO 02009KT 07/05 A3004 RMK AO1 SLP181 P0002
T00670050





000
SAUS41 KCAR 230716
MTR40B
METAR K40B 230716Z AUTO 03006G12KT 300V080 05/01 A3020 RMK AO1
     SLP239 T00490012 58016





000
SAUS41 KCAR 230657
MTRGNR
METAR KGNR 230656Z AUTO 04010KT 07/04 A3006 RMK AO1 SLP188 T00670044





000
SAUS41 KCAR 230616
MTR40B
METAR K40B 230616Z AUTO 03006KT 350V060 05/01 A3022 RMK AO1 SLP245
     T00520014 10059 20051 58008 60000





000
SAUS41 KCAR 230557
MTRGNR
METAR KGNR 230556Z AUTO 04013G17KT 06/04 A3008 RMK AO1 SLP196
T00610039 10067 20056 58018





000
SAUS41 KCAR 230516
MTR40B
METAR K40B 230516Z AUTO VRB05G11KT 06/01 A3023 RMK AO1 SLP249
     T00550013 401130023 58010





000
SAUS41 KCAR 230457
MTRGNR
METAR KGNR 230456Z AUTO 05009G17KT 06/04 A3011 RMK AO1 SLP207
T00610039 401060039





000
SAUS41 KCAR 230457
MTRGNR
METAR KGNR 230456Z AUTO 05009G17KT 06/04 A3011 RMK AO1 SLP207
T00610039 401060039





000
SAUS41 KCAR 230416
MTR40B
METAR K40B 230416Z AUTO VRB04KT 05/01 A3025 RMK AO1 SLP254
     T00540014 55006





000
SAUS41 KCAR 230416
MTR40B
METAR K40B 230416Z AUTO VRB04KT 05/01 A3025 RMK AO1 SLP254
     T00540014 55006





000
SAUS41 KCAR 230357
MTRGNR
METAR KGNR 230356Z AUTO 05009G17KT 06/04 A3012 RMK AO1 SLP211
T00610039





000
SAUS41 KCAR 230357
MTRGNR
METAR KGNR 230356Z AUTO 05009G17KT 06/04 A3012 RMK AO1 SLP211
T00610039





000
SAUS41 KCAR 230316
MTR40B
METAR K40B 230316Z AUTO VRB05G10KT 06/01 A3025 RMK AO1 SLP252
     T00560013 57015 60000





000
SAUS41 KCAR 230257
MTRGNR
METAR KGNR 230256Z AUTO 02008KT 06/03 A3014 RMK AO1 SLP216 T00610033
56013





000
SAUS41 KCAR 230216
MTR40B
METAR K40B 230216Z AUTO VRB03KT 06/01 A3027 RMK AO1 SLP258
     T00560012 57012





000
SAUS41 KCAR 230216
MTR40B
METAR K40B 230216Z AUTO VRB03KT 06/01 A3027 RMK AO1 SLP258
     T00560012 57012





000
SAUS41 KCAR 230157
MTRGNR
METAR KGNR 230156Z AUTO 04011G20KT 06/03 A3014 RMK AO1 SLP218
T00610033





000
SAUS41 KCAR 230157
MTRGNR
METAR KGNR 230156Z AUTO 04011G20KT 06/03 A3014 RMK AO1 SLP218
T00610033





000
SAUS41 KCAR 230116
MTR40B
METAR K40B 230116Z AUTO 00000KT 05/01 A3027 RMK AO1 SLP261
     T00550012 58014 P0000





000
SAUS41 KCAR 230116
MTR40B
METAR K40B 230116Z AUTO 00000KT 05/01 A3027 RMK AO1 SLP261
     T00550012 58014 P0000





000
SAUS41 KCAR 230100
MTRGNR
METAR KGNR 230056Z AUTO 05010G16KT 07/03 A3017 RMK AO1 SLP227
T00670028





000
SAUS41 KCAR 230100
MTRGNR
METAR KGNR 230056Z AUTO 05010G16KT 07/03 A3017 RMK AO1 SLP227
T00670028





000
SAUS41 KCAR 230016
MTR40B
METAR K40B 230016Z AUTO VRB02KT 06/01 A3029 RMK AO1 SLP268
     T00580014 10110 20058 58007 P0000 60000





000
SAUS41 KCAR 230016
MTR40B
METAR K40B 230016Z AUTO VRB02KT 06/01 A3029 RMK AO1 SLP268
     T00580014 10110 20058 58007 P0000 60000





000
SAUS41 KCAR 230000
MTRGNR
METAR KGNR 222356Z AUTO 03007KT 07/03 A3018 RMK AO1 SLP232 60006
T00670028 10100 20067 56010





000
SAUS41 KCAR 230000
MTRGNR
METAR KGNR 222356Z AUTO 03007KT 07/03 A3018 RMK AO1 SLP232 60006
T00670028 10100 20067 56010





000
SAUS41 KCAR 222316
MTR40B
METAR K40B 222316Z AUTO VRB02KT 06/02 A3030 RMK AO1 SLP272
     T00620017 58002





000
SAUS41 KCAR 222316
MTR40B
METAR K40B 222316Z AUTO VRB02KT 06/02 A3030 RMK AO1 SLP272
     T00620017 58002





000
SAUS41 KCAR 222300
MTRGNR
METAR KGNR 222256Z AUTO 03012G21KT 07/03 A3019 RMK AO1 SLP236
T00670028





000
SAUS41 KCAR 222300
MTRGNR
METAR KGNR 222256Z AUTO 03012G21KT 07/03 A3019 RMK AO1 SLP236
T00670028





000
SAUS41 KCAR 222216
MTR40B
METAR K40B 222216Z AUTO 00000KT 07/02 A3032 RMK AO1 SLP276
     T00670019 52005





000
SAUS41 KCAR 222216
MTR40B
METAR K40B 222216Z AUTO 00000KT 07/02 A3032 RMK AO1 SLP276
     T00670019 52005





000
SAUS41 KCAR 222200
MTRGNR
METAR KGNR 222156Z AUTO 04008KT 07/04 A3020 RMK AO1 SLP238 P0002
T00670039





000
SAUS41 KCAR 222116
MTR40B
METAR K40B 222116Z AUTO VRB04KT 07/02 A3031 RMK AO1 SLP277
     T00740017 53003





000
SAUS41 KCAR 222100
MTRGNR
METAR KGNR 222056Z AUTO 02008KT 07/04 A3021 RMK AO1 SLP242 P0004
60004 T00720039 55000





000
SAUS41 KCAR 222016
MTR40B
METAR K40B 222016Z AUTO 03007G14KT 350V060 09/00 A3031 RMK AO1
     SLP275 T00881002 56003





000
SAUS41 KCAR 222016
MTR40B
METAR K40B 222016Z AUTO 03007G14KT 350V060 09/00 A3031 RMK AO1
     SLP275 T00881002 56003





000
SAUS41 KCAR 222000
MTRGNR
METAR KGNR 221956Z AUTO 06011G19KT 08/03 A3021 RMK AO1 SLP241
T00830033





000
SAUS41 KCAR 221916
MTR40B
METAR K40B 221916Z AUTO 03008G16KT 350V060 10/00 A3031 RMK AO1
     SLP275 T00971003 56007





000
SAUS41 KCAR 221900
MTRGNR
METAR KGNR 221856Z AUTO 03009KT 09/03 A3020 RMK AO1 SLP237 T00940028





000
SAUS41 KCAR 221816
MTR40B
METAR K40B 221816Z AUTO 01007G15KT 310V080 11/01 A3030 RMK AO1
     SLP276 T01070007 10113 20031 56016





000
SAUS41 KCAR 221800
MTRGNR
METAR KGNR 221756Z AUTO 04008G16KT 10/03 A3021 RMK AO1 SLP240
T01000028 10106 20056 56008





000
SAUS41 KCAR 221800
MTRGNR
METAR KGNR 221756Z AUTO 04008G16KT 10/03 A3021 RMK AO1 SLP240
T01000028 10106 20056 56008





000
SAUS41 KCAR 221716
MTR40B
METAR K40B 221716Z AUTO 04008G13KT 320V100 11/01 A3031 RMK AO1
     SLP280 T01070014 58017





000
SAUS41 KCAR 221716
MTR40B
METAR K40B 221716Z AUTO 04008G13KT 320V100 11/01 A3031 RMK AO1
     SLP280 T01070014 58017





000
SAUS41 KCAR 221700
MTRGNR
METAR KGNR 221656Z AUTO 05010KT 09/02 A3021 RMK AO1 SLP240 T00940022





000
SAUS41 KCAR 221700
MTRGNR
METAR KGNR 221656Z AUTO 05010KT 09/02 A3021 RMK AO1 SLP240 T00940022





000
SAUS41 KCAR 221616
MTR40B
METAR K40B 221616Z AUTO VRB06G12KT 09/02 A3032 RMK AO1 SLP284
     T00900016 58014





000
SAUS41 KCAR 221600
MTRGNR
METAR KGNR 221556Z AUTO 05009KT 09/02 A3022 RMK AO1 SLP246 T00890017





000
SAUS41 KCAR 221600
MTRGNR
METAR KGNR 221556Z AUTO 05009KT 09/02 A3022 RMK AO1 SLP246 T00890017





000
SAUS41 KCAR 221516
MTR40B
METAR K40B 221516Z AUTO 02007G12KT 350V050 07/01 A3035 RMK AO1
     SLP295 T00710006 50002





000
SAUS41 KCAR 221500
MTRGNR
METAR KGNR 221456Z AUTO 04012G16KT 08/02 A3024 RMK AO1 SLP250
T00830017 50002





000
SAUS41 KCAR 221416
MTR40B
METAR K40B 221416Z AUTO VRB04G10KT 05/01 A3036 RMK AO1 SLP298
     T00470006 51012





000
SAUS41 KCAR 221357
MTRGNR
METAR KGNR 221356Z AUTO 04010G18KT 07/02 A3024 RMK AO1 SLP253
T00720022





000
SAUS41 KCAR 221316
MTR40B
METAR K40B 221316Z AUTO VRB04KT 04/00 A3036 RMK AO1 SLP300
     T00381003 51022





000
SAUS41 KCAR 221257
MTRGNR
METAR KGNR 221256Z AUTO 05011KT 06/02 A3023 RMK AO1 SLP250 T00610022





000
SAUS41 KCAR 221216
MTR40B
METAR K40B 221216Z AUTO VRB04KT 03/M01 A3035 RMK AO1 SLP294
     T00311005 10031 20023 52021 60000 70003





000
SAUS41 KCAR 221157
MTRGNR
METAR KGNR 221156Z AUTO 35003KT 06/03 A3023 RMK AO1 SLP249 70019
T00560028 10061 20044 51016





000
SAUS41 KCAR 221116
MTR40B
METAR K40B 221116Z AUTO VRB02KT 02/M01 A3032 RMK AO1 SLP286
     T00231006 52016





000
SAUS41 KCAR 221057
MTRGNR
METAR KGNR 221056Z AUTO 00000KT 05/03 A3022 RMK AO1 SLP246 T00500028





000
SAUS41 KCAR 221057
MTRGNR
METAR KGNR 221056Z AUTO 00000KT 05/03 A3022 RMK AO1 SLP246 T00500028





000
SAUS41 KCAR 221016
MTR40B
METAR K40B 221016Z AUTO VRB03KT 02/M01 A3030 RMK AO1 SLP277
     T00241005 52010





000
SAUS41 KCAR 221016
MTR40B
METAR K40B 221016Z AUTO VRB03KT 02/M01 A3030 RMK AO1 SLP277
     T00241005 52010





000
SAUS41 KCAR 220957
MTRGNR
METAR KGNR 220956Z AUTO 05006KT 05/02 A3020 RMK AO1 SLP238 T00500022





000
SAUS41 KCAR 220957
MTRGNR
METAR KGNR 220956Z AUTO 05006KT 05/02 A3020 RMK AO1 SLP238 T00500022





000
SAUS41 KCAR 220916
MTR40B
METAR K40B 220916Z AUTO VRB03KT 03/00 A3028 RMK AO1 SLP272
     T00271001 53004 60000





    US Dept of Commerce
    National Oceanic and Atmospheric Administration
    National Weather Service
    1325 East West Highway
    Silver Spring, MD 20910
    Page Author: NWS Internet Services Team
Disclaimer
Information Quality
Credits
Glossary
Privacy Policy
Freedom of Information Act (FOIA)
About Us
Career Opportunities